Time;durP1;ratioP1;P1;durP2;ratioP2;P2;SDS_P1;SDS_P2;PMS_P1;PMS_P2;Temp;Humidity;BMP_temperature;BMP_pressure;BME280_temperature;BME280_humidity;BME280_pressure;Samples;Min_cycle;Max_cycle;Signal;HPM_P1;HPM_P2
2023/08/23 00:00:28;;;;;;;;;;;;;;;;;;6181152;28;19918;-69
2023/08/23 00:03:28;;;;;;;;;;;;;;;;;;6179366;28;19990;-68
2023/08/23 00:06:28;;;;;;;;;;;;;;;;;;6185166;28;19932;-68
2023/08/23 00:09:28;;;;;;;;;;;;;;;;;;6179238;28;20005;-68
2023/08/23 00:12:28;;;;;;;;;;;;;;;;;;6183593;28;19964;-69
2023/08/23 00:15:29;;;;;;;;;;;;;;;;;;6182635;28;19914;-68
2023/08/23 00:18:29;;;;;;;;;;;;;;;;;;6179960;28;19976;-69
2023/08/23 00:21:29;;;;;;;;;;;;;;;;;;6183428;28;19952;-70
2023/08/23 00:24:29;;;;;;;;;;;;;;;;;;6180774;28;19924;-69
2023/08/23 00:27:30;;;;;;;;;;;;;;;;;;6183219;28;20392;-68
2023/08/23 00:30:30;;;;;;;;;;;;;;;;;;6178123;28;19920;-68
2023/08/23 00:33:30;;;;;;;;;;;;;;;;;;6180446;28;19913;-69
2023/08/23 00:36:30;;;;;;;;;;;;;;;;;;6177333;28;19917;-67
2023/08/23 00:39:30;;;;;;;;;;;;;;;;;;6178614;28;20375;-68
2023/08/23 00:42:30;;;;;;;;;;;;;;;;;;6182351;28;20085;-73
2023/08/23 00:45:30;;;;;;;;;;;;;;;;;;6183014;28;19956;-68
2023/08/23 00:48:30;;;;;;;;;;;;;;;;;;6180287;28;20415;-68
2023/08/23 00:51:31;;;;;;;;;;;;;;;;;;6181783;28;19925;-68
2023/08/23 00:54:31;;;;;;;;;;;;;;;;;;6178751;28;20008;-69
2023/08/23 00:57:31;;;;;;;;;;;;;;;;;;6182709;28;19944;-68
2023/08/23 01:00:31;;;;;;;;;;;;;;;;;;6181652;28;19925;-67
2023/08/23 01:03:32;;;;;;;;;;;;;;;;;;6181657;28;19990;-68
2023/08/23 01:06:32;;;;;;;;;;;;;;;;;;6180471;28;19937;-68
2023/08/23 01:09:32;;;;;;;;;;;;;;;;;;6182726;28;19972;-68
2023/08/23 01:12:34;;;;;;;;;;;;;;;;;;6184141;28;20021;-68
2023/08/23 01:15:34;;;;;;;;;;;;;;;;;;6182882;28;19914;-68
2023/08/23 01:18:34;;;;;;;;;;;;;;;;;;6187644;28;19925;-69
2023/08/23 01:21:34;;;;;;;;;;;;;;;;;;6178106;28;20036;-67
2023/08/23 01:24:34;;;;;;;;;;;;;;;;;;6166372;28;19964;-74
2023/08/23 01:27:34;;;;;;;;;;;;;;;;;;6189831;28;20313;-69
2023/08/23 01:30:34;;;;;;;;;;;;;;;;;;6186530;28;19945;-68
2023/08/23 01:33:34;;;;;;;;;;;;;;;;;;6187696;28;20001;-69
2023/08/23 01:36:35;;;;;;;;;;;;;;;;;;6189029;28;19913;-68
2023/08/23 01:39:35;;;;;;;;;;;;;;;;;;6186284;28;19929;-69
2023/08/23 01:42:35;;;;;;;;;;;;;;;;;;6185817;28;19909;-68
2023/08/23 01:45:35;;;;;;;;;;;;;;;;;;6186419;28;19916;-68
2023/08/23 01:48:35;;;;;;;;;;;;;;;;;;6187520;28;19909;-68
2023/08/23 01:51:35;;;;;;;;;;;;;;;;;;6190360;28;19925;-68
2023/08/23 01:54:35;;;;;;;;;;;;;;;;;;6182683;28;19964;-69
2023/08/23 01:57:36;;;;;;;;;;;;;;;;;;6184366;28;19910;-69
2023/08/23 02:00:37;;;;;;;;;;;;;;;;;;6186742;28;19925;-68
2023/08/23 02:03:37;;;;;;;;;;;;;;;;;;6188232;28;20740;-68
2023/08/23 02:06:37;;;;;;;;;;;;;;;;;;6187753;28;19917;-73
2023/08/23 02:09:37;;;;;;;;;;;;;;;;;;6188927;28;19922;-67
2023/08/23 02:12:37;;;;;;;;;;;;;;;;;;6185393;28;20740;-68
2023/08/23 02:15:37;;;;;;;;;;;;;;;;;;6184816;28;20605;-69
2023/08/23 02:18:37;;;;;;;;;;;;;;;;;;6186267;28;20008;-69
2023/08/23 02:21:38;;;;;;;;;;;;;;;;;;6188611;28;19917;-69
2023/08/23 02:24:38;;;;;;;;;;;;;;;;;;6182849;28;19918;-68
2023/08/23 02:27:38;;;;;;;;;;;;;;;;;;6184049;28;19910;-68
2023/08/23 02:30:38;;;;;;;;;;;;;;;;;;6183469;28;19965;-68
2023/08/23 02:33:38;;;;;;;;;;;;;;;;;;6185616;28;19917;-67
2023/08/23 02:36:38;;;;;;;;;;;;;;;;;;6184983;28;19979;-67
2023/08/23 02:39:38;;;;;;;;;;;;;;;;;;6187846;28;20402;-68
2023/08/23 02:42:38;;;;;;;;;;;;;;;;;;6182179;28;19972;-68
2023/08/23 02:45:39;;;;;;;;;;;;;;;;;;6189746;28;19910;-68
2023/08/23 02:48:39;;;;;;;;;;;;;;;;;;6185027;28;19996;-69
2023/08/23 02:51:39;;;;;;;;;;;;;;;;;;6182466;28;19914;-68
2023/08/23 02:54:39;;;;;;;;;;;;;;;;;;6182191;28;19964;-68
2023/08/23 02:57:39;;;;;;;;;;;;;;;;;;6182552;28;19918;-69
2023/08/23 03:00:39;;;;;;;;;;;;;;;;;;6170604;28;19926;-67
2023/08/23 03:03:39;;;;;;;;;;;;;;;;;;6159148;28;19918;-68
2023/08/23 03:06:39;;;;;;;;;;;;;;;;;;6164377;28;19918;-65
2023/08/23 03:09:40;;;;;;;;;;;;;;;;;;6164381;28;19973;-66
2023/08/23 03:12:40;;;;;;;;;;;;;;;;;;6158188;28;19910;-64
2023/08/23 03:15:40;;;;;;;;;;;;;;;;;;6170056;28;20005;-66
2023/08/23 03:18:40;;;;;;;;;;;;;;;;;;6161049;28;20269;-66
2023/08/23 03:21:40;;;;;;;;;;;;;;;;;;6169055;28;20418;-66
2023/08/23 03:24:40;;;;;;;;;;;;;;;;;;6185679;28;19909;-66
2023/08/23 03:27:41;;;;;;;;;;;;;;;;;;6171952;28;20233;-66
2023/08/23 03:30:41;;;;;;;;;;;;;;;;;;6167653;28;20447;-66
2023/08/23 03:33:41;;;;;;;;;;;;;;;;;;6172790;28;20002;-66
2023/08/23 03:36:41;;;;;;;;;;;;;;;;;;6170889;28;20001;-66
2023/08/23 03:39:41;;;;;;;;;;;;;;;;;;6172248;28;19918;-65
2023/08/23 03:42:41;;;;;;;;;;;;;;;;;;6171172;28;20352;-65
2023/08/23 03:45:42;;;;;;;;;;;;;;;;;;6168776;28;19914;-65
2023/08/23 03:48:42;;;;;;;;;;;;;;;;;;6169882;28;19914;-66
2023/08/23 03:51:42;;;;;;;;;;;;;;;;;;6165514;28;19914;-66
2023/08/23 03:54:43;;;;;;;;;;;;;;;;;;6170649;28;20352;-66
2023/08/23 03:57:43;;;;;;;;;;;;;;;;;;6160541;28;19917;-66
2023/08/23 04:00:43;;;;;;;;;;;;;;;;;;6192957;28;20012;-67
2023/08/23 04:03:43;;;;;;;;;;;;;;;;;;6196079;28;20422;-66
2023/08/23 04:06:43;;;;;;;;;;;;;;;;;;6195721;28;19918;-66
2023/08/23 04:09:43;;;;;;;;;;;;;;;;;;6200054;28;19945;-66
2023/08/23 04:12:44;;;;;;;;;;;;;;;;;;6180524;28;19921;-66
2023/08/23 04:15:44;;;;;;;;;;;;;;;;;;6187440;28;19961;-66
2023/08/23 04:18:45;;;;;;;;;;;;;;;;;;6194591;28;19939;-66
2023/08/23 04:21:45;;;;;;;;;;;;;;;;;;6191297;28;19960;-66
2023/08/23 04:24:45;;;;;;;;;;;;;;;;;;6191378;28;20367;-66
2023/08/23 04:27:45;;;;;;;;;;;;;;;;;;6178179;28;20048;-66
2023/08/23 04:30:45;;;;;;;;;;;;;;;;;;6184025;28;19910;-66
2023/08/23 04:33:45;;;;;;;;;;;;;;;;;;6178807;28;20459;-66
2023/08/23 04:36:45;;;;;;;;;;;;;;;;;;6179780;28;19918;-66
2023/08/23 04:39:45;;;;;;;;;;;;;;;;;;6179266;28;19922;-65
2023/08/23 04:42:46;;;;;;;;;;;;;;;;;;6183022;28;19917;-65
2023/08/23 04:45:46;;;;;;;;;;;;;;;;;;6176475;28;19984;-70
2023/08/23 04:48:46;;;;;;;;;;;;;;;;;;6179066;28;19953;-66
2023/08/23 04:51:46;;;;;;;;;;;;;;;;;;6181823;28;20046;-67
2023/08/23 04:54:46;;;;;;;;;;;;;;;;;;6184459;28;19996;-66
2023/08/23 04:57:46;;;;;;;;;;;;;;;;;;6185059;28;19921;-66
2023/08/23 05:00:46;;;;;;;;;;;;;;;;;;6192933;28;20376;-66
2023/08/23 05:03:46;;;;;;;;;;;;;;;;;;6197287;28;19917;-67
2023/08/23 05:06:47;;;;;;;;;;;;;;;;;;6192955;28;19913;-66
2023/08/23 05:09:47;;;;;;;;;;;;;;;;;;6201887;28;20327;-66
2023/08/23 05:12:47;;;;;;;;;;;;;;;;;;6211775;28;19905;-65
2023/08/23 05:15:47;;;;;;;;;;;;;;;;;;6196039;28;20003;-67
2023/08/23 05:18:47;;;;;;;;;;;;;;;;;;6177231;28;19961;-66
2023/08/23 05:21:47;;;;;;;;;;;;;;;;;;6191548;28;19989;-66
2023/08/23 05:24:47;;;;;;;;;;;;;;;;;;6197065;28;20537;-67
2023/08/23 05:27:48;;;;;;;;;;;;;;;;;;6191015;28;19916;-71
2023/08/23 05:30:48;;;;;;;;;;;;;;;;;;6194727;28;19916;-66
2023/08/23 05:33:48;;;;;;;;;;;;;;;;;;6192336;28;19909;-66
2023/08/23 05:36:48;;;;;;;;;;;;;;;;;;6186157;28;19909;-67
2023/08/23 05:39:48;;;;;;;;;;;;;;;;;;6180572;28;19957;-66
2023/08/23 05:42:48;;;;;;;;;;;;;;;;;;6178604;28;19909;-66
2023/08/23 05:45:50;;;;;;;;;;;;;;;;;;6175791;28;20015;-66
2023/08/23 05:48:50;;;;;;;;;;;;;;;;;;6181968;28;19953;-67
2023/08/23 05:51:52;;;;;;;;;;;;;;;;;;6180651;28;19918;-67
2023/08/23 05:54:52;;;;;;;;;;;;;;;;;;6185178;28;19968;-67
2023/08/23 05:57:52;;;;;;;;;;;;;;;;;;6180401;28;19909;-68
2023/08/23 06:00:55;;;;;;;;;;;;;;;;;;6183662;28;20314;-67
2023/08/23 06:03:55;;;;;;;;;;;;;;;;;;6178720;28;19910;-66
2023/08/23 06:06:55;;;;;;;;;;;;;;;;;;6173942;28;20230;-67
2023/08/23 06:09:55;;;;;;;;;;;;;;;;;;6176086;28;19928;-66
2023/08/23 06:12:55;;;;;;;;;;;;;;;;;;6177646;28;19918;-66
2023/08/23 06:15:55;;;;;;;;;;;;;;;;;;6178644;28;20390;-73
2023/08/23 06:18:55;;;;;;;;;;;;;;;;;;6179416;28;20391;-70
2023/08/23 06:21:55;;;;;;;;;;;;;;;;;;6176605;28;19919;-73
2023/08/23 06:24:55;;;;;;;;;;;;;;;;;;6175304;28;19945;-75
2023/08/23 06:27:56;;;;;;;;;;;;;;;;;;6179591;28;19916;-67
2023/08/23 06:30:56;;;;;;;;;;;;;;;;;;6179228;28;19918;-68
2023/08/23 06:33:56;;;;;;;;;;;;;;;;;;6182152;28;19918;-69
2023/08/23 06:36:56;;;;;;;;;;;;;;;;;;6185307;28;19984;-83
2023/08/23 06:39:56;;;;;;;;;;;;;;;;;;6182890;28;20495;-76
2023/08/23 06:42:56;;;;;;;;;;;;;;;;;;6173414;28;20319;-74
2023/08/23 06:45:56;;;;;;;;;;;;;;;;;;6175046;28;19910;-71
2023/08/23 06:48:56;;;;;;;;;;;;;;;;;;6178396;28;20523;-71
2023/08/23 06:51:57;;;;;;;;;;;;;;;;;;6175558;28;19997;-71
2023/08/23 06:54:57;;;;;;;;;;;;;;;;;;6173975;28;19964;-73
2023/08/23 06:57:57;;;;;;;;;;;;;;;;;;6179050;28;19926;-74
2023/08/23 07:00:57;;;;;;;;;;;;;;;;;;6190786;28;19951;-78
2023/08/23 07:03:57;;;;;;;;;;;;;;;;;;6191705;28;19909;-67
2023/08/23 07:06:57;;;;;;;;;;;;;;;;;;6194631;28;19910;-68
2023/08/23 07:09:57;;;;;;;;;;;;;;;;;;6196717;28;19913;-68
2023/08/23 07:12:58;;;;;;;;;;;;;;;;;;6186349;28;20382;-70
2023/08/23 07:15:58;;;;;;;;;;;;;;;;;;6177635;28;19917;-76
2023/08/23 07:18:58;;;;;;;;;;;;;;;;;;6160704;28;20320;-69
2023/08/23 07:21:58;;;;;;;;;;;;;;;;;;6160665;28;20281;-74
2023/08/23 07:24:58;;;;;;;;;;;;;;;;;;6160552;28;20732;-72
2023/08/23 07:27:58;;;;;;;;;;;;;;;;;;6158560;28;19917;-69
2023/08/23 07:30:58;;;;;;;;;;;;;;;;;;6161070;28;19960;-71
2023/08/23 07:33:59;;;;;;;;;;;;;;;;;;6158268;28;19972;-74
2023/08/23 07:36:59;;;;;;;;;;;;;;;;;;6158004;28;19914;-72
2023/08/23 07:39:59;;;;;;;;;;;;;;;;;;6158584;28;19997;-75
2023/08/23 07:42:59;;;;;;;;;;;;;;;;;;6158997;28;20411;-72
2023/08/23 07:45:59;;;;;;;;;;;;;;;;;;6156837;28;19961;-71
2023/08/23 07:48:59;;;;;;;;;;;;;;;;;;6158550;28;19918;-71
2023/08/23 07:51:59;;;;;;;;;;;;;;;;;;6159454;28;19921;-70
2023/08/23 07:54:59;;;;;;;;;;;;;;;;;;6155848;28;20019;-74
2023/08/23 07:58:00;;;;;;;;;;;;;;;;;;6160933;28;19937;-71
2023/08/23 08:01:00;;;;;;;;;;;;;;;;;;6159323;28;20086;-68
2023/08/23 08:04:00;;;;;;;;;;;;;;;;;;6156584;28;19997;-66
2023/08/23 08:07:02;;;;;;;;;;;;;;;;;;6157193;28;19923;-73
2023/08/23 08:10:02;;;;;;;;;;;;;;;;;;6159609;28;19969;-71
2023/08/23 08:13:02;;;;;;;;;;;;;;;;;;6160742;28;19917;-74
2023/08/23 08:16:02;;;;;;;;;;;;;;;;;;6158306;28;19949;-74
2023/08/23 08:19:03;;;;;;;;;;;;;;;;;;6163651;28;19918;-66
2023/08/23 08:22:03;;;;;;;;;;;;;;;;;;6157847;28;20357;-70
2023/08/23 08:25:03;;;;;;;;;;;;;;;;;;6162704;28;19996;-66
2023/08/23 08:28:03;;;;;;;;;;;;;;;;;;6166822;28;20013;-71
2023/08/23 08:31:03;;;;;;;;;;;;;;;;;;6159908;28;19941;-67
2023/08/23 08:34:03;;;;;;;;;;;;;;;;;;5816584;28;10000033;-68
2023/08/23 08:37:04;;;;;;;;;;;;;;;;;;6158544;28;19981;-67
2023/08/23 08:40:04;;;;;;;;;;;;;;;;;;6157354;28;19988;-72
2023/08/23 08:43:05;;;;;;;;;;;;;;;;;;6159325;28;20381;-69
2023/08/23 08:46:05;;;;;;;;;;;;;;;;;;6159472;28;19914;-67
2023/08/23 08:49:05;;;;;;;;;;;;;;;;;;6158716;28;19961;-72
2023/08/23 08:52:05;;;;;;;;;;;;;;;;;;6159031;28;21279;-70
2023/08/23 08:55:05;;;;;;;;;;;;;;;;;;6155651;28;19961;-71
2023/08/23 08:58:05;;;;;;;;;;;;;;;;;;6158182;28;19952;-73
2023/08/23 09:01:05;;;;;;;;;;;;;;;;;;6157460;28;20024;-73
2023/08/23 09:04:07;;;;;;;;;;;;;;;;;;6159856;28;19994;-73
2023/08/23 09:07:07;;;;;;;;;;;;;;;;;;6161336;28;19918;-71
2023/08/23 09:10:07;;;;;;;;;;;;;;;;;;6161935;28;19921;-72
2023/08/23 09:13:07;;;;;;;;;;;;;;;;;;6160434;28;19986;-72
2023/08/23 09:16:07;;;;;;;;;;;;;;;;;;6158934;28;20376;-73
2023/08/23 09:19:07;;;;;;;;;;;;;;;;;;6162451;28;19961;-72
2023/08/23 09:22:07;;;;;;;;;;;;;;;;;;6163747;28;20596;-71
2023/08/23 09:25:08;;;;;;;;;;;;;;;;;;6160938;28;19941;-74
2023/08/23 09:28:08;;;;;;;;;;;;;;;;;;6161907;28;20331;-72
2023/08/23 09:31:09;;;;;;;;;;;;;;;;;;6161432;28;20445;-74
2023/08/23 09:34:09;;;;;;;;;;;;;;;;;;6164457;28;19963;-73
2023/08/23 09:37:09;;;;;;;;;;;;;;;;;;6168470;28;19918;-75
2023/08/23 09:40:09;;;;;;;;;;;;;;;;;;6166440;28;19921;-77
2023/08/23 09:43:09;;;;;;;;;;;;;;;;;;6165625;28;19910;-73
2023/08/23 09:46:09;;;;;;;;;;;;;;;;;;6162801;28;20016;-73
2023/08/23 09:49:09;;;;;;;;;;;;;;;;;;6164175;28;19921;-75
2023/08/23 09:52:10;;;;;;;;;;;;;;;;;;6165053;28;19917;-77
2023/08/23 09:55:11;;;;;;;;;;;;;;;;;;6167861;28;20280;-77
2023/08/23 09:58:11;;;;;;;;;;;;;;;;;;6165352;28;20297;-74
2023/08/23 10:01:11;;;;;;;;;;;;;;;;;;6162571;28;19918;-78
2023/08/23 10:04:11;;;;;;;;;;;;;;;;;;6164870;28;19917;-77
2023/08/23 10:07:12;;;;;;;;;;;;;;;;;;6162072;28;20640;-74
2023/08/23 10:10:12;;;;;;;;;;;;;;;;;;6162200;28;20416;-72
2023/08/23 10:13:13;;;;;;;;;;;;;;;;;;6159789;28;20012;-81
2023/08/23 10:16:13;;;;;;;;;;;;;;;;;;6162206;28;20292;-74
2023/08/23 10:19:13;;;;;;;;;;;;;;;;;;6159341;28;19924;-75
2023/08/23 10:22:13;;;;;;;;;;;;;;;;;;6164288;28;19976;-73
2023/08/23 10:25:13;;;;;;;;;;;;;;;;;;6145977;28;20627;-75
2023/08/23 10:28:15;;;;;;;;;;;;;;;;;;6166334;28;19925;-77
2023/08/23 10:31:15;;;;;;;;;;;;;;;;;;6167676;28;19918;-74
2023/08/23 10:34:15;;;;;;;;;;;;;;;;;;6169347;28;19985;-73
2023/08/23 10:37:15;;;;;;;;;;;;;;;;;;6165252;28;20371;-71
2023/08/23 10:40:16;;;;;;;;;;;;;;;;;;6163014;28;20336;-73
2023/08/23 10:43:16;;;;;;;;;;;;;;;;;;6160695;28;19914;-66
2023/08/23 10:46:16;;;;;;;;;;;;;;;;;;6161018;28;19990;-79
2023/08/23 10:49:16;;;;;;;;;;;;;;;;;;6165709;28;19918;-79
2023/08/23 10:52:16;;;;;;;;;;;;;;;;;;6164866;28;19949;-80
2023/08/23 10:55:17;;;;;;;;;;;;;;;;;;6163198;28;19918;-78
2023/08/23 10:58:17;;;;;;;;;;;;;;;;;;6159819;28;19925;-77
2023/08/23 11:01:17;;;;;;;;;;;;;;;;;;6163399;28;19926;-76
2023/08/23 11:04:17;;;;;;;;;;;;;;;;;;6164205;28;19925;-75
2023/08/23 11:07:17;;;;;;;;;;;;;;;;;;6160367;28;19922;-76
2023/08/23 11:10:17;;;;;;;;;;;;;;;;;;6161562;28;20325;-77
2023/08/23 11:13:17;;;;;;;;;;;;;;;;;;6161251;28;19918;-77
2023/08/23 11:16:17;;;;;;;;;;;;;;;;;;6160528;28;19936;-76
2023/08/23 11:19:18;;;;;;;;;;;;;;;;;;6157705;28;19994;-74
2023/08/23 11:22:18;;;;;;;;;;;;;;;;;;6160148;28;19921;-74
2023/08/23 11:25:18;;;;;;;;;;;;;;;;;;6161297;28;19986;-76
2023/08/23 11:28:18;;;;;;;;;;;;;;;;;;6164553;28;19928;-81
2023/08/23 11:31:18;;;;;;;;;;;;;;;;;;6161785;28;19914;-75
2023/08/23 11:34:18;;;;;;;;;;;;;;;;;;6162331;28;19917;-76
2023/08/23 11:37:18;;;;;;;;;;;;;;;;;;6159704;28;20320;-76
2023/08/23 11:40:18;;;;;;;;;;;;;;;;;;6161755;28;19929;-76
2023/08/23 11:43:19;;;;;;;;;;;;;;;;;;6163243;28;19918;-82
2023/08/23 11:46:19;;;;;;;;;;;;;;;;;;6160138;28;19945;-73
2023/08/23 11:49:19;;;;;;;;;;;;;;;;;;6160520;28;19945;-78
2023/08/23 11:52:19;;;;;;;;;;;;;;;;;;6163019;28;19918;-77
2023/08/23 11:55:19;;;;;;;;;;;;;;;;;;6163269;28;19965;-78
2023/08/23 11:58:19;;;;;;;;;;;;;;;;;;6163152;28;19917;-85
2023/08/23 12:01:20;;;;;;;;;;;;;;;;;;6166297;28;20392;-85
2023/08/23 12:04:21;;;;;;;;;;;;;;;;;;6164090;28;20235;-78
2023/08/23 12:07:22;;;;;;;;;;;;;;;;;;6165295;28;22539;-81
2023/08/23 12:10:22;;;;;;;;;;;;;;;;;;6162191;28;20795;-77
2023/08/23 12:13:22;;;;;;;;;;;;;;;;;;6163037;28;19922;-79
2023/08/23 12:16:22;;;;;;;;;;;;;;;;;;6160702;28;19993;-78
2023/08/23 12:19:22;;;;;;;;;;;;;;;;;;6164011;28;19922;-82
2023/08/23 12:22:22;;;;;;;;;;;;;;;;;;6164752;28;19918;-80
2023/08/23 12:25:22;;;;;;;;;;;;;;;;;;6163986;28;19981;-74
2023/08/23 12:28:22;;;;;;;;;;;;;;;;;;6164264;28;20387;-77
2023/08/23 12:31:23;;;;;;;;;;;;;;;;;;6162034;28;20163;-76
2023/08/23 12:34:23;;;;;;;;;;;;;;;;;;6166120;28;21393;-81
2023/08/23 12:37:23;;;;;;;;;;;;;;;;;;6165891;28;20295;-80
2023/08/23 12:40:23;;;;;;;;;;;;;;;;;;6164332;28;19960;-77
2023/08/23 12:43:24;;;;;;;;;;;;;;;;;;6160423;28;19925;-76
2023/08/23 12:46:24;;;;;;;;;;;;;;;;;;6160086;28;19980;-73
2023/08/23 12:49:24;;;;;;;;;;;;;;;;;;6161839;28;19957;-77
2023/08/23 12:52:24;;;;;;;;;;;;;;;;;;6164943;28;19924;-84
2023/08/23 12:55:25;;;;;;;;;;;;;;;;;;6161673;28;19924;-74
2023/08/23 12:58:25;;;;;;;;;;;;;;;;;;6159757;28;19922;-77
2023/08/23 13:01:25;;;;;;;;;;;;;;;;;;6162473;28;19968;-78
2023/08/23 13:04:25;;;;;;;;;;;;;;;;;;6164643;28;19918;-80
2023/08/23 13:07:25;;;;;;;;;;;;;;;;;;6163512;28;20958;-77
2023/08/23 13:10:25;;;;;;;;;;;;;;;;;;5821708;28;10000081;-74
2023/08/23 13:13:25;;;;;;;;;;;;;;;;;;6163903;28;19949;-74
2023/08/23 13:16:25;;;;;;;;;;;;;;;;;;6159333;28;21289;-74
2023/08/23 13:19:26;;;;;;;;;;;;;;;;;;6159151;28;20135;-72
2023/08/23 13:22:27;;;;;;;;;;;;;;;;;;6164524;28;20483;-77
2023/08/23 13:25:27;;;;;;;;;;;;;;;;;;6167738;28;19914;-74
2023/08/23 13:28:28;;;;;;;;;;;;;;;;;;6168193;28;19972;-78
2023/08/23 13:31:28;;;;;;;;;;;;;;;;;;6167349;28;20296;-73
2023/08/23 13:34:28;;;;;;;;;;;;;;;;;;6165710;28;20004;-76
2023/08/23 13:37:28;;;;;;;;;;;;;;;;;;6171631;28;19918;-81
2023/08/23 13:40:28;;;;;;;;;;;;;;;;;;6166383;28;19972;-76
2023/08/23 13:43:28;;;;;;;;;;;;;;;;;;6170216;28;19925;-75
2023/08/23 13:46:29;;;;;;;;;;;;;;;;;;6168618;28;21499;-73
2023/08/23 13:49:29;;;;;;;;;;;;;;;;;;6165869;28;20469;-72
2023/08/23 13:52:29;;;;;;;;;;;;;;;;;;6169442;28;19960;-73
2023/08/23 13:55:29;;;;;;;;;;;;;;;;;;6162242;28;19940;-77
2023/08/23 13:58:29;;;;;;;;;;;;;;;;;;6163667;28;20020;-76
2023/08/23 14:01:29;;;;;;;;;;;;;;;;;;6162356;28;19922;-76
2023/08/23 14:04:32;;;;;;;;;;;;;;;;;;6164040;28;19914;-71
2023/08/23 14:07:32;;;;;;;;;;;;;;;;;;6163193;28;19957;-73
2023/08/23 14:10:32;;;;;;;;;;;;;;;;;;6164456;28;19921;-72
2023/08/23 14:13:32;;;;;;;;;;;;;;;;;;6161881;28;19918;-74
2023/08/23 14:16:33;;;;;;;;;;;;;;;;;;6161749;28;20408;-71
2023/08/23 14:19:33;;;;;;;;;;;;;;;;;;6160415;28;19928;-71
2023/08/23 14:22:33;;;;;;;;;;;;;;;;;;6161847;28;19914;-74
2023/08/23 14:25:35;;;;;;;;;;;;;;;;;;6163983;28;19922;-74
2023/08/23 14:28:36;;;;;;;;;;;;;;;;;;6164746;28;20004;-76
2023/08/23 14:31:36;;;;;;;;;;;;;;;;;;6165853;28;19918;-78
2023/08/23 14:34:36;;;;;;;;;;;;;;;;;;6165112;28;19917;-74
2023/08/23 14:37:37;;;;;;;;;;;;;;;;;;6162443;28;20009;-73
2023/08/23 14:40:37;;;;;;;;;;;;;;;;;;6163840;28;19928;-74
2023/08/23 14:43:37;;;;;;;;;;;;;;;;;;6165163;28;19957;-73
2023/08/23 14:46:37;;;;;;;;;;;;;;;;;;6166136;28;20307;-73
2023/08/23 14:49:37;;;;;;;;;;;;;;;;;;6164564;28;20411;-76
2023/08/23 14:52:37;;;;;;;;;;;;;;;;;;6178546;28;19910;-78
2023/08/23 14:55:38;;;;;;;;;;;;;;;;;;6165480;28;19917;-77
2023/08/23 14:58:38;;;;;;;;;;;;;;;;;;6160888;28;19918;-75
2023/08/23 15:01:38;;;;;;;;;;;;;;;;;;6173347;28;19934;-82
2023/08/23 15:04:38;;;;;;;;;;;;;;;;;;6176603;28;20012;-82
2023/08/23 15:07:38;;;;;;;;;;;;;;;;;;6172472;28;19918;-75
2023/08/23 15:10:38;;;;;;;;;;;;;;;;;;6163008;28;20016;-75
2023/08/23 15:13:40;;;;;;;;;;;;;;;;;;6158035;28;19961;-76
2023/08/23 15:16:40;;;;;;;;;;;;;;;;;;6161316;28;19960;-74
2023/08/23 15:19:40;;;;;;;;;;;;;;;;;;5822754;28;10000315;-74
2023/08/23 15:22:40;;;;;;;;;;;;;;;;;;6163475;28;20466;-74
2023/08/23 15:25:40;;;;;;;;;;;;;;;;;;6164036;28;19917;-75
2023/08/23 15:28:40;;;;;;;;;;;;;;;;;;6163848;28;19917;-74
2023/08/23 15:31:40;;;;;;;;;;;;;;;;;;6162774;28;19910;-82
2023/08/23 15:34:41;;;;;;;;;;;;;;;;;;6166197;28;19926;-76
2023/08/23 15:37:47;;;;;;;;;;;;;;;;;;6167224;28;20220;-75
2023/08/23 15:40:47;;;;;;;;;;;;;;;;;;6167360;28;20388;-75
2023/08/23 15:43:47;;;;;;;;;;;;;;;;;;6167823;28;20373;-75
2023/08/23 15:46:48;;;;;;;;;;;;;;;;;;6165911;28;20291;-76
2023/08/23 15:49:49;;;;;;;;;;;;;;;;;;6167921;28;20115;-76
2023/08/23 15:52:49;;;;;;;;;;;;;;;;;;6165820;28;19918;-76
2023/08/23 15:55:49;;;;;;;;;;;;;;;;;;6166059;28;19928;-76
2023/08/23 15:58:49;;;;;;;;;;;;;;;;;;6168080;28;19917;-76
2023/08/23 16:01:49;;;;;;;;;;;;;;;;;;6165674;28;20327;-76
2023/08/23 16:04:49;;;;;;;;;;;;;;;;;;6168684;28;20545;-75
2023/08/23 16:07:49;;;;;;;;;;;;;;;;;;6168946;28;20000;-76
2023/08/23 16:10:52;;;;;;;;;;;;;;;;;;6163637;28;20424;-76
2023/08/23 16:13:52;;;;;;;;;;;;;;;;;;6166280;28;19918;-76
2023/08/23 16:16:53;;;;;;;;;;;;;;;;;;6165360;28;19925;-75
2023/08/23 16:19:53;;;;;;;;;;;;;;;;;;6167835;28;19938;-74
2023/08/23 16:22:53;;;;;;;;;;;;;;;;;;6163075;28;20283;-76
2023/08/23 16:25:55;;;;;;;;;;;;;;;;;;6161506;28;19918;-76
2023/08/23 16:28:55;;;;;;;;;;;;;;;;;;6165335;28;20432;-76
2023/08/23 16:31:55;;;;;;;;;;;;;;;;;;6165489;28;19918;-75
2023/08/23 16:34:55;;;;;;;;;;;;;;;;;;6164107;28;19941;-75
2023/08/23 16:37:55;;;;;;;;;;;;;;;;;;6163051;28;19941;-74
2023/08/23 16:40:55;;;;;;;;;;;;;;;;;;6164384;28;19914;-75
2023/08/23 16:43:55;;;;;;;;;;;;;;;;;;6166058;28;20394;-75
2023/08/23 16:46:56;;;;;;;;;;;;;;;;;;6166246;28;19922;-74
2023/08/23 16:49:56;;;;;;;;;;;;;;;;;;6167910;28;19925;-74
2023/08/23 16:52:56;;;;;;;;;;;;;;;;;;6169305;28;20396;-75
2023/08/23 16:55:56;;;;;;;;;;;;;;;;;;6167650;28;19997;-75
2023/08/23 16:58:57;;;;;;;;;;;;;;;;;;6167562;28;19910;-74
2023/08/23 17:01:57;;;;;;;;;;;;;;;;;;6165225;28;20356;-74
2023/08/23 17:04:57;;;;;;;;;;;;;;;;;;6168420;28;20345;-74
2023/08/23 17:07:57;;;;;;;;;;;;;;;;;;6168241;28;20390;-75
2023/08/23 17:10:57;;;;;;;;;;;;;;;;;;6168620;28;19920;-74
2023/08/23 17:13:57;;;;;;;;;;;;;;;;;;6169113;28;19925;-74
2023/08/23 17:16:57;;;;;;;;;;;;;;;;;;5820606;28;10000399;-74
2023/08/23 17:19:57;;;;;;;;;;;;;;;;;;6167936;28;20687;-73
2023/08/23 17:22:58;;;;;;;;;;;;;;;;;;6165824;28;19917;-73
2023/08/23 17:25:58;;;;;;;;;;;;;;;;;;6167023;28;20617;-76
2023/08/23 17:28:59;;;;;;;;;;;;;;;;;;6166307;28;19956;-84
2023/08/23 17:31:59;;;;;;;;;;;;;;;;;;6144010;28;19962;-75
2023/08/23 17:34:59;;;;;;;;;;;;;;;;;;6165656;28;20012;-74
2023/08/23 17:37:59;;;;;;;;;;;;;;;;;;6159585;28;20309;-74
2023/08/23 17:40:59;;;;;;;;;;;;;;;;;;6159877;28;19969;-72
2023/08/23 17:44:00;;;;;;;;;;;;;;;;;;6162482;28;19917;-72
2023/08/23 17:47:00;;;;;;;;;;;;;;;;;;6157478;28;20502;-73
2023/08/23 17:50:00;;;;;;;;;;;;;;;;;;6162862;28;19940;-73
2023/08/23 17:53:04;;;;;;;;;;;;;;;;;;6158900;28;19953;-73
2023/08/23 17:56:04;;;;;;;;;;;;;;;;;;6160123;28;20344;-73
2023/08/23 17:59:04;;;;;;;;;;;;;;;;;;6167294;28;20001;-72
2023/08/23 18:02:04;;;;;;;;;;;;;;;;;;6167108;28;20665;-73
2023/08/23 18:05:04;;;;;;;;;;;;;;;;;;6166755;28;19914;-72
2023/08/23 18:08:04;;;;;;;;;;;;;;;;;;6168433;28;19910;-72
2023/08/23 18:11:05;;;;;;;;;;;;;;;;;;5816223;28;9999812;-77
2023/08/23 18:14:05;;;;;;;;;;;;;;;;;;6165125;28;20107;-71
2023/08/23 18:17:05;;;;;;;;;;;;;;;;;;6163839;28;19918;-73
2023/08/23 18:20:05;;;;;;;;;;;;;;;;;;6167469;28;19944;-73
2023/08/23 18:23:08;;;;;;;;;;;;;;;;;;6164403;28;19922;-73
2023/08/23 18:26:08;;;;;;;;;;;;;;;;;;6167004;28;19961;-73
2023/08/23 18:29:08;;;;;;;;;;;;;;;;;;6164872;28;20940;-73
2023/08/23 18:32:10;;;;;;;;;;;;;;;;;;6166418;28;19964;-73
2023/08/23 18:35:10;;;;;;;;;;;;;;;;;;6165999;28;20294;-72
2023/08/23 18:38:10;;;;;;;;;;;;;;;;;;6165445;28;20396;-73
2023/08/23 18:41:10;;;;;;;;;;;;;;;;;;6163505;28;20446;-73
2023/08/23 18:44:10;;;;;;;;;;;;;;;;;;6168677;28;19964;-73
2023/08/23 18:47:10;;;;;;;;;;;;;;;;;;6167038;28;19920;-74
2023/08/23 18:50:11;;;;;;;;;;;;;;;;;;6166742;28;20392;-74
2023/08/23 18:53:11;;;;;;;;;;;;;;;;;;6162608;28;19936;-72
2023/08/23 18:56:11;;;;;;;;;;;;;;;;;;6160594;28;19922;-73
2023/08/23 18:59:11;;;;;;;;;;;;;;;;;;6165486;28;19918;-72
2023/08/23 19:02:11;;;;;;;;;;;;;;;;;;6162109;28;19932;-72
2023/08/23 19:05:13;;;;;;;;;;;;;;;;;;6163428;28;20045;-72
2023/08/23 19:08:13;;;;;;;;;;;;;;;;;;6164015;28;21275;-71
2023/08/23 19:11:13;;;;;;;;;;;;;;;;;;6161263;28;19922;-72
2023/08/23 19:14:13;;;;;;;;;;;;;;;;;;6163810;28;19918;-73
2023/08/23 19:17:13;;;;;;;;;;;;;;;;;;6154730;28;19917;-73
2023/08/23 19:20:13;;;;;;;;;;;;;;;;;;6162134;28;20284;-73
2023/08/23 19:23:14;;;;;;;;;;;;;;;;;;6164949;28;19964;-73
2023/08/23 19:26:14;;;;;;;;;;;;;;;;;;6165357;28;19918;-73
2023/08/23 19:29:14;;;;;;;;;;;;;;;;;;6163399;28;19964;-73
2023/08/23 19:32:14;;;;;;;;;;;;;;;;;;6162974;28;19941;-73
2023/08/23 19:35:14;;;;;;;;;;;;;;;;;;6162580;28;20380;-73
2023/08/23 19:38:14;;;;;;;;;;;;;;;;;;6162355;28;19918;-73
2023/08/23 19:41:14;;;;;;;;;;;;;;;;;;6164748;28;19917;-73
2023/08/23 19:44:15;;;;;;;;;;;;;;;;;;6165215;28;19914;-73
2023/08/23 19:47:15;;;;;;;;;;;;;;;;;;6161840;28;19977;-72
2023/08/23 19:50:15;;;;;;;;;;;;;;;;;;6166419;28;20591;-73
2023/08/23 19:53:15;;;;;;;;;;;;;;;;;;6165371;28;19987;-73
2023/08/23 19:56:15;;;;;;;;;;;;;;;;;;6162887;28;19937;-73
2023/08/23 19:59:16;;;;;;;;;;;;;;;;;;6164069;28;19914;-73
2023/08/23 20:02:16;;;;;;;;;;;;;;;;;;6162154;28;20025;-72
2023/08/23 20:05:18;;;;;;;;;;;;;;;;;;6163006;28;20503;-72
2023/08/23 20:08:18;;;;;;;;;;;;;;;;;;6163670;28;20059;-73
2023/08/23 20:11:19;;;;;;;;;;;;;;;;;;6161815;28;19922;-73
2023/08/23 20:14:19;;;;;;;;;;;;;;;;;;6163899;28;19988;-67
2023/08/23 20:17:19;;;;;;;;;;;;;;;;;;6164355;28;19918;-67
2023/08/23 20:20:19;;;;;;;;;;;;;;;;;;6164559;28;20016;-67
2023/08/23 20:23:20;;;;;;;;;;;;;;;;;;6162711;28;19917;-66
2023/08/23 20:26:20;;;;;;;;;;;;;;;;;;6163015;28;19918;-68